sensor_id;sensor_type;location;lat;lon;timestamp;temperature;humidity
21271;DHT22;10795;50.796;3.860;2022-09-24T00:01:54;13.40;99.90
21271;DHT22;10795;50.796;3.860;2022-09-24T00:04:24;13.30;99.90
21271;DHT22;10795;50.796;3.860;2022-09-24T00:06:49;13.30;99.90
21271;DHT22;10795;50.796;3.860;2022-09-24T00:09:17;13.30;99.90
21271;DHT22;10795;50.796;3.860;2022-09-24T00:11:50;13.30;99.90
21271;DHT22;10795;50.796;3.860;2022-09-24T00:14:18;13.30;99.90
21271;DHT22;10795;50.796;3.860;2022-09-24T00:16:44;13.20;99.90
21271;DHT22;10795;50.796;3.860;2022-09-24T00:19:11;13.20;99.90
21271;DHT22;10795;50.796;3.860;2022-09-24T00:21:38;13.10;99.90
21271;DHT22;10795;50.796;3.860;2022-09-24T00:24:08;13.10;99.90
21271;DHT22;10795;50.796;3.860;2022-09-24T00:26:33;13.10;99.90
21271;DHT22;10795;50.796;3.860;2022-09-24T00:29:20;13.00;99.90
21271;DHT22;10795;50.796;3.860;2022-09-24T00:31:47;13.00;99.90
21271;DHT22;10795;50.796;3.860;2022-09-24T00:34:14;13.10;99.90
21271;DHT22;10795;50.796;3.860;2022-09-24T00:36:39;13.10;99.90
21271;DHT22;10795;50.796;3.860;2022-09-24T00:39:06;13.20;99.90
21271;DHT22;10795;50.796;3.860;2022-09-24T00:41:34;13.10;99.90
21271;DHT22;10795;50.796;3.860;2022-09-24T00:47:47;13.10;99.90
21271;DHT22;10795;50.796;3.860;2022-09-24T00:53:00;13.40;99.90
21271;DHT22;10795;50.796;3.860;2022-09-24T00:55:28;13.30;99.90
21271;DHT22;10795;50.796;3.860;2022-09-24T00:57:58;13.30;99.90
21271;DHT22;10795;50.796;3.860;2022-09-24T01:00:25;13.20;99.90
21271;DHT22;10795;50.796;3.860;2022-09-24T01:03:03;13.20;99.90
21271;DHT22;10795;50.796;3.860;2022-09-24T01:05:30;13.20;99.90
21271;DHT22;10795;50.796;3.860;2022-09-24T01:07:56;13.20;99.90
21271;DHT22;10795;50.796;3.860;2022-09-24T01:22:06;13.60;99.90
21271;DHT22;10795;50.796;3.860;2022-09-24T01:25:00;13.70;99.90
21271;DHT22;10795;50.796;3.860;2022-09-24T01:30:10;13.90;99.90
21271;DHT22;10795;50.796;3.860;2022-09-24T01:33:01;13.90;99.90
21271;DHT22;10795;50.796;3.860;2022-09-24T01:35:33;14.20;99.90
21271;DHT22;10795;50.796;3.860;2022-09-24T01:38:15;14.00;99.90
21271;DHT22;10795;50.796;3.860;2022-09-24T01:40:42;14.00;99.90
21271;DHT22;10795;50.796;3.860;2022-09-24T01:43:11;14.30;99.90
21271;DHT22;10795;50.796;3.860;2022-09-24T01:45:38;14.00;99.90
21271;DHT22;10795;50.796;3.860;2022-09-24T01:48:05;13.70;99.90
21271;DHT22;10795;50.796;3.860;2022-09-24T01:54:08;13.50;99.90
21271;DHT22;10795;50.796;3.860;2022-09-24T01:56:49;13.40;99.90
21271;DHT22;10795;50.796;3.860;2022-09-24T01:59:30;13.30;99.90
21271;DHT22;10795;50.796;3.860;2022-09-24T02:02:15;13.30;99.90
21271;DHT22;10795;50.796;3.860;2022-09-24T02:04:45;13.30;99.90
21271;DHT22;10795;50.796;3.860;2022-09-24T02:07:20;13.20;99.90
21271;DHT22;10795;50.796;3.860;2022-09-24T02:09:48;13.30;99.90
21271;DHT22;10795;50.796;3.860;2022-09-24T02:12:16;13.30;99.90
21271;DHT22;10795;50.796;3.860;2022-09-24T02:14:55;13.20;99.90
21271;DHT22;10795;50.796;3.860;2022-09-24T02:17:23;13.20;99.90
21271;DHT22;10795;50.796;3.860;2022-09-24T02:19:50;13.20;99.90
21271;DHT22;10795;50.796;3.860;2022-09-24T02:22:17;13.10;99.90
21271;DHT22;10795;50.796;3.860;2022-09-24T02:24:47;13.10;99.90
21271;DHT22;10795;50.796;3.860;2022-09-24T02:27:16;13.10;99.90
21271;DHT22;10795;50.796;3.860;2022-09-24T02:29:41;13.10;99.90
21271;DHT22;10795;50.796;3.860;2022-09-24T02:32:12;13.20;99.90
21271;DHT22;10795;50.796;3.860;2022-09-24T02:34:46;13.50;99.90
21271;DHT22;10795;50.796;3.860;2022-09-24T02:37:15;13.60;99.90
21271;DHT22;10795;50.796;3.860;2022-09-24T02:39:41;13.70;99.90
21271;DHT22;10795;50.796;3.860;2022-09-24T02:42:10;13.80;99.90
21271;DHT22;10795;50.796;3.860;2022-09-24T02:44:38;13.80;99.90
21271;DHT22;10795;50.796;3.860;2022-09-24T02:47:04;13.60;99.90
21271;DHT22;10795;50.796;3.860;2022-09-24T02:49:31;13.50;99.90
21271;DHT22;10795;50.796;3.860;2022-09-24T02:51:57;13.40;99.90
21271;DHT22;10795;50.796;3.860;2022-09-24T02:54:22;13.40;99.90
21271;DHT22;10795;50.796;3.860;2022-09-24T02:56:50;13.30;99.90
21271;DHT22;10795;50.796;3.860;2022-09-24T02:59:16;13.20;99.90
21271;DHT22;10795;50.796;3.860;2022-09-24T03:01:42;13.20;99.90
21271;DHT22;10795;50.796;3.860;2022-09-24T03:04:08;13.20;99.90
21271;DHT22;10795;50.796;3.860;2022-09-24T03:06:34;13.10;99.90
21271;DHT22;10795;50.796;3.860;2022-09-24T03:09:01;13.10;99.90
21271;DHT22;10795;50.796;3.860;2022-09-24T03:11:28;13.00;99.90
21271;DHT22;10795;50.796;3.860;2022-09-24T03:13:56;13.10;99.90
21271;DHT22;10795;50.796;3.860;2022-09-24T03:16:22;13.10;99.90
21271;DHT22;10795;50.796;3.860;2022-09-24T03:18:48;13.20;99.90
21271;DHT22;10795;50.796;3.860;2022-09-24T03:21:16;13.10;99.90
21271;DHT22;10795;50.796;3.860;2022-09-24T03:23:42;13.10;99.90
21271;DHT22;10795;50.796;3.860;2022-09-24T03:26:08;13.10;99.90
21271;DHT22;10795;50.796;3.860;2022-09-24T03:28:34;13.20;99.90
21271;DHT22;10795;50.796;3.860;2022-09-24T03:31:00;13.30;99.90
21271;DHT22;10795;50.796;3.860;2022-09-24T03:33:36;13.30;99.90
21271;DHT22;10795;50.796;3.860;2022-09-24T03:38:34;13.30;99.90
21271;DHT22;10795;50.796;3.860;2022-09-24T03:41:00;13.20;99.90
21271;DHT22;10795;50.796;3.860;2022-09-24T03:43:26;13.30;99.90
21271;DHT22;10795;50.796;3.860;2022-09-24T03:45:52;13.30;99.90
21271;DHT22;10795;50.796;3.860;2022-09-24T03:48:21;13.20;99.90
21271;DHT22;10795;50.796;3.860;2022-09-24T03:50:48;13.10;99.90
21271;DHT22;10795;50.796;3.860;2022-09-24T03:53:14;13.10;99.90
21271;DHT22;10795;50.796;3.860;2022-09-24T03:55:54;13.00;99.90
21271;DHT22;10795;50.796;3.860;2022-09-24T03:58:20;13.00;99.90
21271;DHT22;10795;50.796;3.860;2022-09-24T04:00:46;12.80;99.90
21271;DHT22;10795;50.796;3.860;2022-09-24T04:03:12;13.30;99.90
21271;DHT22;10795;50.796;3.860;2022-09-24T04:05:38;13.50;99.90
21271;DHT22;10795;50.796;3.860;2022-09-24T04:08:04;13.30;99.90
21271;DHT22;10795;50.796;3.860;2022-09-24T04:10:30;13.20;99.90
21271;DHT22;10795;50.796;3.860;2022-09-24T04:12:56;13.10;99.90
21271;DHT22;10795;50.796;3.860;2022-09-24T04:15:23;13.00;99.90
21271;DHT22;10795;50.796;3.860;2022-09-24T04:20:16;13.00;99.90
21271;DHT22;10795;50.796;3.860;2022-09-24T04:22:42;12.90;99.90
21271;DHT22;10795;50.796;3.860;2022-09-24T04:25:08;12.90;99.90
21271;DHT22;10795;50.796;3.860;2022-09-24T04:27:33;13.00;99.90
21271;DHT22;10795;50.796;3.860;2022-09-24T04:30:01;13.10;99.90
21271;DHT22;10795;50.796;3.860;2022-09-24T04:32:27;13.20;99.90
21271;DHT22;10795;50.796;3.860;2022-09-24T04:34:52;13.10;99.90
21271;DHT22;10795;50.796;3.860;2022-09-24T04:37:18;13.10;99.90
21271;DHT22;10795;50.796;3.860;2022-09-24T04:39:44;13.00;99.90
21271;DHT22;10795;50.796;3.860;2022-09-24T04:42:15;13.00;99.90
21271;DHT22;10795;50.796;3.860;2022-09-24T04:44:41;13.00;99.90
21271;DHT22;10795;50.796;3.860;2022-09-24T04:47:11;12.90;99.90
21271;DHT22;10795;50.796;3.860;2022-09-24T04:49:37;12.90;99.90
21271;DHT22;10795;50.796;3.860;2022-09-24T04:52:02;13.00;99.90
21271;DHT22;10795;50.796;3.860;2022-09-24T04:54:28;12.90;99.90
21271;DHT22;10795;50.796;3.860;2022-09-24T04:56:54;12.90;99.90
21271;DHT22;10795;50.796;3.860;2022-09-24T04:59:21;13.00;99.90
21271;DHT22;10795;50.796;3.860;2022-09-24T05:01:47;13.00;99.90
21271;DHT22;10795;50.796;3.860;2022-09-24T05:04:13;13.00;99.90
21271;DHT22;10795;50.796;3.860;2022-09-24T05:06:38;13.10;99.90
21271;DHT22;10795;50.796;3.860;2022-09-24T05:09:04;13.00;99.90
21271;DHT22;10795;50.796;3.860;2022-09-24T05:11:30;13.10;99.90
21271;DHT22;10795;50.796;3.860;2022-09-24T05:13:56;13.00;99.90
21271;DHT22;10795;50.796;3.860;2022-09-24T05:16:21;13.10;99.90
21271;DHT22;10795;50.796;3.860;2022-09-24T05:18:47;13.10;99.90
21271;DHT22;10795;50.796;3.860;2022-09-24T05:21:13;13.30;99.90
21271;DHT22;10795;50.796;3.860;2022-09-24T05:23:39;13.50;99.90
21271;DHT22;10795;50.796;3.860;2022-09-24T05:26:05;13.50;99.90
21271;DHT22;10795;50.796;3.860;2022-09-24T05:28:49;13.30;99.90
21271;DHT22;10795;50.796;3.860;2022-09-24T05:31:15;13.20;99.90
21271;DHT22;10795;50.796;3.860;2022-09-24T05:33:41;13.20;99.90
21271;DHT22;10795;50.796;3.860;2022-09-24T05:36:08;13.20;99.90
21271;DHT22;10795;50.796;3.860;2022-09-24T05:38:34;13.10;99.90
21271;DHT22;10795;50.796;3.860;2022-09-24T05:41:00;13.00;99.90
21271;DHT22;10795;50.796;3.860;2022-09-24T05:43:26;12.90;99.90
21271;DHT22;10795;50.796;3.860;2022-09-24T05:45:56;12.90;99.90
21271;DHT22;10795;50.796;3.860;2022-09-24T05:48:24;12.90;99.90
21271;DHT22;10795;50.796;3.860;2022-09-24T05:50:51;12.90;99.90
21271;DHT22;10795;50.796;3.860;2022-09-24T05:53:20;12.90;99.90
21271;DHT22;10795;50.796;3.860;2022-09-24T05:55:46;12.90;99.90
21271;DHT22;10795;50.796;3.860;2022-09-24T05:58:12;12.90;99.90
21271;DHT22;10795;50.796;3.860;2022-09-24T06:00:38;12.90;99.90
21271;DHT22;10795;50.796;3.860;2022-09-24T06:03:07;13.00;99.90
21271;DHT22;10795;50.796;3.860;2022-09-24T06:05:35;13.00;99.90
21271;DHT22;10795;50.796;3.860;2022-09-24T06:08:04;12.90;99.90
21271;DHT22;10795;50.796;3.860;2022-09-24T06:10:32;13.00;99.90
21271;DHT22;10795;50.796;3.860;2022-09-24T06:12:58;13.10;99.90
21271;DHT22;10795;50.796;3.860;2022-09-24T06:15:24;13.10;99.90
21271;DHT22;10795;50.796;3.860;2022-09-24T06:17:54;13.00;99.90
21271;DHT22;10795;50.796;3.860;2022-09-24T06:20:21;13.10;99.90
21271;DHT22;10795;50.796;3.860;2022-09-24T06:22:47;13.10;99.90
21271;DHT22;10795;50.796;3.860;2022-09-24T06:25:13;13.10;99.90
21271;DHT22;10795;50.796;3.860;2022-09-24T06:27:39;13.20;99.90
21271;DHT22;10795;50.796;3.860;2022-09-24T06:30:07;13.10;99.90
21271;DHT22;10795;50.796;3.860;2022-09-24T06:32:32;13.10;99.90
21271;DHT22;10795;50.796;3.860;2022-09-24T06:34:58;13.20;99.90
21271;DHT22;10795;50.796;3.860;2022-09-24T06:37:24;13.20;99.90
21271;DHT22;10795;50.796;3.860;2022-09-24T06:39:50;13.10;99.90
21271;DHT22;10795;50.796;3.860;2022-09-24T06:42:15;13.10;99.90
21271;DHT22;10795;50.796;3.860;2022-09-24T06:44:41;13.20;99.90
21271;DHT22;10795;50.796;3.860;2022-09-24T06:47:07;13.20;99.90
21271;DHT22;10795;50.796;3.860;2022-09-24T06:49:32;13.20;99.90
21271;DHT22;10795;50.796;3.860;2022-09-24T06:51:58;13.20;99.90
21271;DHT22;10795;50.796;3.860;2022-09-24T06:54:24;13.20;99.90
21271;DHT22;10795;50.796;3.860;2022-09-24T06:56:50;13.20;99.90
21271;DHT22;10795;50.796;3.860;2022-09-24T06:59:17;13.10;99.90
21271;DHT22;10795;50.796;3.860;2022-09-24T07:01:43;13.10;99.90
21271;DHT22;10795;50.796;3.860;2022-09-24T07:04:10;13.20;99.90
21271;DHT22;10795;50.796;3.860;2022-09-24T07:06:36;13.30;99.90
21271;DHT22;10795;50.796;3.860;2022-09-24T07:09:20;13.20;99.90
21271;DHT22;10795;50.796;3.860;2022-09-24T07:11:46;13.30;99.90
21271;DHT22;10795;50.796;3.860;2022-09-24T07:14:12;13.30;99.90
21271;DHT22;10795;50.796;3.860;2022-09-24T07:16:46;13.30;99.90
21271;DHT22;10795;50.796;3.860;2022-09-24T07:19:11;13.20;99.90
21271;DHT22;10795;50.796;3.860;2022-09-24T07:21:37;13.60;99.90
21271;DHT22;10795;50.796;3.860;2022-09-24T07:24:03;13.70;99.90
21271;DHT22;10795;50.796;3.860;2022-09-24T07:26:29;13.60;99.90
21271;DHT22;10795;50.796;3.860;2022-09-24T07:28:55;13.40;99.90
21271;DHT22;10795;50.796;3.860;2022-09-24T07:31:20;13.60;99.90
21271;DHT22;10795;50.796;3.860;2022-09-24T07:33:46;13.60;99.90
21271;DHT22;10795;50.796;3.860;2022-09-24T07:36:12;13.80;99.90
21271;DHT22;10795;50.796;3.860;2022-09-24T07:38:38;13.90;99.90
21271;DHT22;10795;50.796;3.860;2022-09-24T07:41:03;13.70;99.90
21271;DHT22;10795;50.796;3.860;2022-09-24T07:43:30;13.70;99.90
21271;DHT22;10795;50.796;3.860;2022-09-24T07:45:58;13.60;99.90
21271;DHT22;10795;50.796;3.860;2022-09-24T07:48:24;13.60;99.90
21271;DHT22;10795;50.796;3.860;2022-09-24T07:50:50;13.50;99.90
21271;DHT22;10795;50.796;3.860;2022-09-24T07:53:16;13.50;99.90
21271;DHT22;10795;50.796;3.860;2022-09-24T07:55:42;13.50;99.90
21271;DHT22;10795;50.796;3.860;2022-09-24T07:58:11;13.50;99.90
21271;DHT22;10795;50.796;3.860;2022-09-24T08:00:38;13.50;99.90
21271;DHT22;10795;50.796;3.860;2022-09-24T08:03:04;13.50;99.90
21271;DHT22;10795;50.796;3.860;2022-09-24T08:05:30;13.50;99.90
21271;DHT22;10795;50.796;3.860;2022-09-24T08:07:57;13.50;99.90
21271;DHT22;10795;50.796;3.860;2022-09-24T08:10:25;13.60;99.90
21271;DHT22;10795;50.796;3.860;2022-09-24T08:12:51;13.60;99.90
21271;DHT22;10795;50.796;3.860;2022-09-24T08:15:18;13.60;99.90
21271;DHT22;10795;50.796;3.860;2022-09-24T08:17:45;13.70;99.90
21271;DHT22;10795;50.796;3.860;2022-09-24T08:20:10;13.60;99.90
21271;DHT22;10795;50.796;3.860;2022-09-24T08:22:37;13.70;99.90
21271;DHT22;10795;50.796;3.860;2022-09-24T08:25:03;13.70;99.90
21271;DHT22;10795;50.796;3.860;2022-09-24T08:27:30;13.80;99.90
21271;DHT22;10795;50.796;3.860;2022-09-24T08:29:58;13.80;99.90
21271;DHT22;10795;50.796;3.860;2022-09-24T08:32:25;13.90;99.90
21271;DHT22;10795;50.796;3.860;2022-09-24T08:34:51;13.90;99.90
21271;DHT22;10795;50.796;3.860;2022-09-24T08:37:17;13.90;99.90
21271;DHT22;10795;50.796;3.860;2022-09-24T08:39:43;13.80;99.90
21271;DHT22;10795;50.796;3.860;2022-09-24T08:42:21;13.80;99.90
21271;DHT22;10795;50.796;3.860;2022-09-24T08:44:50;13.90;99.90
21271;DHT22;10795;50.796;3.860;2022-09-24T08:50:29;13.90;99.90
21271;DHT22;10795;50.796;3.860;2022-09-24T08:53:05;13.90;99.90
21271;DHT22;10795;50.796;3.860;2022-09-24T08:55:47;14.00;99.90
21271;DHT22;10795;50.796;3.860;2022-09-24T08:58:39;14.10;99.90
21271;DHT22;10795;50.796;3.860;2022-09-24T09:01:37;14.10;99.90
21271;DHT22;10795;50.796;3.860;2022-09-24T09:04:25;14.30;99.90
21271;DHT22;10795;50.796;3.860;2022-09-24T09:07:13;14.30;99.90
21271;DHT22;10795;50.796;3.860;2022-09-24T09:12:51;14.20;99.90
21271;DHT22;10795;50.796;3.860;2022-09-24T09:15:23;14.30;99.90
21271;DHT22;10795;50.796;3.860;2022-09-24T09:18:09;14.30;99.90
21271;DHT22;10795;50.796;3.860;2022-09-24T09:20:42;14.30;99.90
21271;DHT22;10795;50.796;3.860;2022-09-24T09:23:24;14.20;99.90
21271;DHT22;10795;50.796;3.860;2022-09-24T09:25:57;14.30;99.90
21271;DHT22;10795;50.796;3.860;2022-09-24T09:28:25;14.30;99.90
21271;DHT22;10795;50.796;3.860;2022-09-24T09:33:52;14.40;99.90
21271;DHT22;10795;50.796;3.860;2022-09-24T09:44:43;14.50;99.90
21271;DHT22;10795;50.796;3.860;2022-09-24T09:50:25;14.50;99.90
21271;DHT22;10795;50.796;3.860;2022-09-24T09:52:52;14.50;99.90
21271;DHT22;10795;50.796;3.860;2022-09-24T09:55:26;14.50;99.90
21271;DHT22;10795;50.796;3.860;2022-09-24T09:58:22;14.50;99.90
21271;DHT22;10795;50.796;3.860;2022-09-24T10:00:46;14.60;99.90
21271;DHT22;10795;50.796;3.860;2022-09-24T10:03:29;14.50;99.90
21271;DHT22;10795;50.796;3.860;2022-09-24T10:06:04;14.50;99.90
21271;DHT22;10795;50.796;3.860;2022-09-24T10:08:31;14.60;99.90
21271;DHT22;10795;50.796;3.860;2022-09-24T10:11:01;14.50;99.90
21271;DHT22;10795;50.796;3.860;2022-09-24T10:13:28;14.50;99.90
21271;DHT22;10795;50.796;3.860;2022-09-24T10:15:58;14.50;99.90
21271;DHT22;10795;50.796;3.860;2022-09-24T10:18:32;14.60;99.90
21271;DHT22;10795;50.796;3.860;2022-09-24T10:21:01;14.60;99.90
21271;DHT22;10795;50.796;3.860;2022-09-24T10:23:34;14.40;99.90
21271;DHT22;10795;50.796;3.860;2022-09-24T10:26:02;14.30;99.90
21271;DHT22;10795;50.796;3.860;2022-09-24T10:28:29;14.30;99.90
21271;DHT22;10795;50.796;3.860;2022-09-24T10:31:18;14.20;99.90
21271;DHT22;10795;50.796;3.860;2022-09-24T10:33:47;14.10;99.90
21271;DHT22;10795;50.796;3.860;2022-09-24T10:36:24;14.10;99.90
21271;DHT22;10795;50.796;3.860;2022-09-24T10:39:08;14.00;99.90
21271;DHT22;10795;50.796;3.860;2022-09-24T10:41:35;14.00;99.90
21271;DHT22;10795;50.796;3.860;2022-09-24T10:44:04;14.10;99.90
21271;DHT22;10795;50.796;3.860;2022-09-24T10:53:13;14.00;99.90
21271;DHT22;10795;50.796;3.860;2022-09-24T10:56:03;14.20;99.90
21271;DHT22;10795;50.796;3.860;2022-09-24T11:01:25;14.10;99.90
21271;DHT22;10795;50.796;3.860;2022-09-24T11:04:28;14.20;99.90
21271;DHT22;10795;50.796;3.860;2022-09-24T11:12:28;14.70;99.90
21271;DHT22;10795;50.796;3.860;2022-09-24T11:29:41;14.50;99.90
21271;DHT22;10795;50.796;3.860;2022-09-24T11:40:48;15.00;99.90
21271;DHT22;10795;50.796;3.860;2022-09-24T11:46:33;15.00;99.90
21271;DHT22;10795;50.796;3.860;2022-09-24T11:54:29;15.00;99.90
21271;DHT22;10795;50.796;3.860;2022-09-24T12:00:11;15.00;99.90
21271;DHT22;10795;50.796;3.860;2022-09-24T12:02:55;14.90;99.90
21271;DHT22;10795;50.796;3.860;2022-09-24T12:05:34;14.90;99.90
21271;DHT22;10795;50.796;3.860;2022-09-24T12:15:54;15.10;99.90
21271;DHT22;10795;50.796;3.860;2022-09-24T12:18:28;15.10;99.90
21271;DHT22;10795;50.796;3.860;2022-09-24T12:21:16;15.00;99.90
21271;DHT22;10795;50.796;3.860;2022-09-24T12:23:45;14.90;99.90
21271;DHT22;10795;50.796;3.860;2022-09-24T12:26:14;15.00;99.90
21271;DHT22;10795;50.796;3.860;2022-09-24T12:28:50;15.10;99.90
21271;DHT22;10795;50.796;3.860;2022-09-24T12:43:29;15.60;99.90
21271;DHT22;10795;50.796;3.860;2022-09-24T12:46:02;15.50;99.90
21271;DHT22;10795;50.796;3.860;2022-09-24T12:48:31;15.30;99.90
21271;DHT22;10795;50.796;3.860;2022-09-24T12:51:02;15.30;99.90
21271;DHT22;10795;50.796;3.860;2022-09-24T12:53:37;15.30;99.90
21271;DHT22;10795;50.796;3.860;2022-09-24T12:56:05;15.30;99.90
21271;DHT22;10795;50.796;3.860;2022-09-24T13:01:12;15.40;99.90
21271;DHT22;10795;50.796;3.860;2022-09-24T13:03:40;15.40;99.90
21271;DHT22;10795;50.796;3.860;2022-09-24T13:06:31;15.40;99.90
21271;DHT22;10795;50.796;3.860;2022-09-24T13:08:57;15.60;99.90
21271;DHT22;10795;50.796;3.860;2022-09-24T13:11:33;15.50;99.90
21271;DHT22;10795;50.796;3.860;2022-09-24T13:16:41;15.70;99.90
21271;DHT22;10795;50.796;3.860;2022-09-24T13:19:38;15.80;99.90
21271;DHT22;10795;50.796;3.860;2022-09-24T13:22:16;15.60;99.90
21271;DHT22;10795;50.796;3.860;2022-09-24T13:24:49;15.40;99.90
21271;DHT22;10795;50.796;3.860;2022-09-24T13:30:14;15.40;99.90
21271;DHT22;10795;50.796;3.860;2022-09-24T13:35:24;15.40;99.90
21271;DHT22;10795;50.796;3.860;2022-09-24T13:38:05;15.40;99.90
21271;DHT22;10795;50.796;3.860;2022-09-24T13:40:36;15.40;99.90
21271;DHT22;10795;50.796;3.860;2022-09-24T13:43:09;15.40;99.90
21271;DHT22;10795;50.796;3.860;2022-09-24T13:45:39;15.30;99.90
21271;DHT22;10795;50.796;3.860;2022-09-24T13:48:34;15.40;99.90
21271;DHT22;10795;50.796;3.860;2022-09-24T13:51:03;15.20;99.90
21271;DHT22;10795;50.796;3.860;2022-09-24T13:55:58;15.10;99.90
21271;DHT22;10795;50.796;3.860;2022-09-24T13:58:34;15.20;99.90
21271;DHT22;10795;50.796;3.860;2022-09-24T14:01:09;15.40;99.90
21271;DHT22;10795;50.796;3.860;2022-09-24T14:03:36;15.20;99.90
21271;DHT22;10795;50.796;3.860;2022-09-24T14:06:14;15.20;99.90
21271;DHT22;10795;50.796;3.860;2022-09-24T14:08:42;15.40;99.90
21271;DHT22;10795;50.796;3.860;2022-09-24T14:11:22;15.60;99.90
21271;DHT22;10795;50.796;3.860;2022-09-24T14:13:51;15.40;99.90
21271;DHT22;10795;50.796;3.860;2022-09-24T14:16:19;15.20;99.90
21271;DHT22;10795;50.796;3.860;2022-09-24T14:18:45;15.20;99.90
21271;DHT22;10795;50.796;3.860;2022-09-24T14:23:59;15.40;99.90
21271;DHT22;10795;50.796;3.860;2022-09-24T14:29:04;15.30;99.90
21271;DHT22;10795;50.796;3.860;2022-09-24T14:31:31;15.20;99.90
21271;DHT22;10795;50.796;3.860;2022-09-24T14:34:00;15.10;99.90
21271;DHT22;10795;50.796;3.860;2022-09-24T14:36:28;15.10;99.90
21271;DHT22;10795;50.796;3.860;2022-09-24T14:38:58;15.20;99.90
21271;DHT22;10795;50.796;3.860;2022-09-24T14:41:29;15.10;99.90
21271;DHT22;10795;50.796;3.860;2022-09-24T14:44:13;15.40;99.90
21271;DHT22;10795;50.796;3.860;2022-09-24T14:49:23;15.40;99.90
21271;DHT22;10795;50.796;3.860;2022-09-24T14:51:59;15.30;99.90
21271;DHT22;10795;50.796;3.860;2022-09-24T14:54:34;15.30;99.90
21271;DHT22;10795;50.796;3.860;2022-09-24T14:59:45;15.50;99.90
21271;DHT22;10795;50.796;3.860;2022-09-24T15:02:18;15.40;99.90
21271;DHT22;10795;50.796;3.860;2022-09-24T15:04:46;15.40;99.90
21271;DHT22;10795;50.796;3.860;2022-09-24T15:07:17;15.60;99.90
21271;DHT22;10795;50.796;3.860;2022-09-24T15:09:49;15.50;99.90
21271;DHT22;10795;50.796;3.860;2022-09-24T15:12:41;15.30;99.90
21271;DHT22;10795;50.796;3.860;2022-09-24T15:17:43;15.30;99.90
21271;DHT22;10795;50.796;3.860;2022-09-24T15:20:10;15.90;99.90
21271;DHT22;10795;50.796;3.860;2022-09-24T15:22:36;15.70;99.90
21271;DHT22;10795;50.796;3.860;2022-09-24T15:25:03;15.50;99.90
21271;DHT22;10795;50.796;3.860;2022-09-24T15:27:31;15.50;99.90
21271;DHT22;10795;50.796;3.860;2022-09-24T15:30:01;15.40;99.90
21271;DHT22;10795;50.796;3.860;2022-09-24T15:32:30;15.30;99.90
21271;DHT22;10795;50.796;3.860;2022-09-24T15:34:57;15.20;99.90
21271;DHT22;10795;50.796;3.860;2022-09-24T15:37:25;15.30;99.90
21271;DHT22;10795;50.796;3.860;2022-09-24T15:39:55;15.20;99.90
21271;DHT22;10795;50.796;3.860;2022-09-24T15:42:26;15.50;99.90
21271;DHT22;10795;50.796;3.860;2022-09-24T15:44:51;15.50;99.90
21271;DHT22;10795;50.796;3.860;2022-09-24T15:47:19;15.40;99.90
21271;DHT22;10795;50.796;3.860;2022-09-24T15:49:45;15.40;99.90
21271;DHT22;10795;50.796;3.860;2022-09-24T15:52:34;15.20;99.90
21271;DHT22;10795;50.796;3.860;2022-09-24T15:55:01;15.20;99.90
21271;DHT22;10795;50.796;3.860;2022-09-24T15:57:27;15.20;99.90
21271;DHT22;10795;50.796;3.860;2022-09-24T15:59:53;14.90;99.90
21271;DHT22;10795;50.796;3.860;2022-09-24T16:02:31;14.80;99.90
21271;DHT22;10795;50.796;3.860;2022-09-24T16:04:57;15.30;99.90
21271;DHT22;10795;50.796;3.860;2022-09-24T16:07:24;15.10;99.90
21271;DHT22;10795;50.796;3.860;2022-09-24T16:09:50;15.10;99.90
21271;DHT22;10795;50.796;3.860;2022-09-24T16:12:17;15.00;99.90
21271;DHT22;10795;50.796;3.860;2022-09-24T16:14:44;15.30;99.90
21271;DHT22;10795;50.796;3.860;2022-09-24T16:17:10;15.30;99.90
21271;DHT22;10795;50.796;3.860;2022-09-24T16:19:36;15.30;99.90
21271;DHT22;10795;50.796;3.860;2022-09-24T16:22:03;15.30;99.90
21271;DHT22;10795;50.796;3.860;2022-09-24T16:24:32;15.00;99.90
21271;DHT22;10795;50.796;3.860;2022-09-24T16:27:01;15.10;99.90
21271;DHT22;10795;50.796;3.860;2022-09-24T16:29:28;15.00;99.90
21271;DHT22;10795;50.796;3.860;2022-09-24T16:31:53;15.40;99.90
21271;DHT22;10795;50.796;3.860;2022-09-24T16:34:19;15.10;99.90
21271;DHT22;10795;50.796;3.860;2022-09-24T16:36:45;15.00;99.90
21271;DHT22;10795;50.796;3.860;2022-09-24T16:39:11;15.10;99.90
21271;DHT22;10795;50.796;3.860;2022-09-24T16:41:40;14.90;99.90
21271;DHT22;10795;50.796;3.860;2022-09-24T16:44:05;15.10;99.90
21271;DHT22;10795;50.796;3.860;2022-09-24T16:46:31;15.00;99.90
21271;DHT22;10795;50.796;3.860;2022-09-24T16:48:57;14.90;99.90
21271;DHT22;10795;50.796;3.860;2022-09-24T16:51:23;15.10;99.90
21271;DHT22;10795;50.796;3.860;2022-09-24T16:53:55;15.40;99.90
21271;DHT22;10795;50.796;3.860;2022-09-24T16:56:21;15.30;99.90
21271;DHT22;10795;50.796;3.860;2022-09-24T16:58:48;15.30;99.90
21271;DHT22;10795;50.796;3.860;2022-09-24T17:01:16;15.10;99.90
21271;DHT22;10795;50.796;3.860;2022-09-24T17:03:42;14.90;99.90
21271;DHT22;10795;50.796;3.860;2022-09-24T17:06:15;14.80;99.90
21271;DHT22;10795;50.796;3.860;2022-09-24T17:08:41;15.00;99.90
21271;DHT22;10795;50.796;3.860;2022-09-24T17:11:25;15.10;99.90
21271;DHT22;10795;50.796;3.860;2022-09-24T17:13:51;15.20;99.90
21271;DHT22;10795;50.796;3.860;2022-09-24T17:16:17;15.10;99.90
21271;DHT22;10795;50.796;3.860;2022-09-24T17:18:43;15.40;99.90
21271;DHT22;10795;50.796;3.860;2022-09-24T17:21:11;15.10;99.90
21271;DHT22;10795;50.796;3.860;2022-09-24T17:23:37;15.00;99.90
21271;DHT22;10795;50.796;3.860;2022-09-24T17:26:09;15.00;99.90
21271;DHT22;10795;50.796;3.860;2022-09-24T17:28:37;15.00;99.90
21271;DHT22;10795;50.796;3.860;2022-09-24T17:31:05;14.70;99.90
21271;DHT22;10795;50.796;3.860;2022-09-24T17:33:31;14.70;99.90
21271;DHT22;10795;50.796;3.860;2022-09-24T17:35:59;14.60;99.90
21271;DHT22;10795;50.796;3.860;2022-09-24T17:38:25;14.60;99.90
21271;DHT22;10795;50.796;3.860;2022-09-24T17:40:56;15.00;99.90
21271;DHT22;10795;50.796;3.860;2022-09-24T17:43:22;14.80;99.90
21271;DHT22;10795;50.796;3.860;2022-09-24T17:45:58;14.80;99.90
21271;DHT22;10795;50.796;3.860;2022-09-24T17:48:27;14.90;99.90
21271;DHT22;10795;50.796;3.860;2022-09-24T17:50:58;14.80;99.90
21271;DHT22;10795;50.796;3.860;2022-09-24T17:53:25;14.70;99.90
21271;DHT22;10795;50.796;3.860;2022-09-24T17:55:54;15.10;99.90
21271;DHT22;10795;50.796;3.860;2022-09-24T17:58:21;15.00;99.90
21271;DHT22;10795;50.796;3.860;2022-09-24T18:00:48;15.10;99.90
21271;DHT22;10795;50.796;3.860;2022-09-24T18:03:15;15.20;99.90
21271;DHT22;10795;50.796;3.860;2022-09-24T18:05:41;14.90;99.90
21271;DHT22;10795;50.796;3.860;2022-09-24T18:08:07;14.80;99.90
21271;DHT22;10795;50.796;3.860;2022-09-24T18:10:33;14.80;99.90
21271;DHT22;10795;50.796;3.860;2022-09-24T18:12:59;14.90;99.90